Time;durP1;ratioP1;P1;durP2;ratioP2;P2;SDS_P1;SDS_P2;PMS_P1;PMS_P2;Temp;Humidity;BMP_temperature;BMP_pressure;BME280_temperature;BME280_humidity;BME280_pressure;Samples;Min_cycle;Max_cycle;Signal;HPM_P1;HPM_P2
2022/11/12 00:02:17;;;;;;;15.07;10.43;;;;;;;;;;6152581;23;20017;-68
2022/11/12 00:04:43;;;;;;;13.75;9.80;;;;;;;;;;6152506;23;20061;-68
2022/11/12 00:07:09;;;;;;;17.00;11.20;;;;;;;;;;6127052;23;20413;-68
2022/11/12 00:09:35;;;;;;;18.52;12.52;;;;;;;;;;6153164;23;20013;-68
2022/11/12 00:12:01;;;;;;;19.23;12.27;;;;;;;;;;6126884;23;20060;-68
2022/11/12 00:14:27;;;;;;;17.90;10.70;;;;;;;;;;6153378;23;20017;-68
2022/11/12 00:16:53;;;;;;;17.88;11.88;;;;;;;;;;6153167;23;20024;-68
2022/11/12 00:19:20;;;;;;;13.70;9.60;;;;;;;;;;6126908;23;20023;-68
2022/11/12 00:21:46;;;;;;;14.18;11.30;;;;;;;;;;6126763;23;20052;-67
2022/11/12 00:24:12;;;;;;;17.33;10.57;;;;;;;;;;6152972;23;20100;-68
2022/11/12 00:26:38;;;;;;;16.52;10.02;;;;;;;;;;6153120;23;20323;-68
2022/11/12 00:29:04;;;;;;;15.38;10.48;;;;;;;;;;6152948;23;20024;-68
2022/11/12 00:31:30;;;;;;;16.90;10.38;;;;;;;;;;6153408;23;20017;-68
2022/11/12 00:33:56;;;;;;;13.48;9.77;;;;;;;;;;6153276;23;20020;-69
2022/11/12 00:36:22;;;;;;;13.43;9.38;;;;;;;;;;6153499;23;20018;-69
2022/11/12 00:38:48;;;;;;;13.77;11.07;;;;;;;;;;6127555;23;20022;-68
2022/11/12 00:41:14;;;;;;;17.27;10.45;;;;;;;;;;6153395;23;20465;-68
2022/11/12 00:43:41;;;;;;;15.63;10.73;;;;;;;;;;6152728;23;20433;-68
2022/11/12 00:46:07;;;;;;;17.70;11.57;;;;;;;;;;6152996;23;20345;-68
2022/11/12 00:48:33;;;;;;;14.55;10.15;;;;;;;;;;6127335;23;20021;-68
2022/11/12 00:51:03;;;;;;;19.25;10.20;;;;;;;;;;6153116;23;20022;-69
2022/11/12 00:53:29;;;;;;;18.88;11.65;;;;;;;;;;6153045;23;20025;-68
2022/11/12 00:56:02;;;;;;;13.48;10.65;;;;;;;;;;6153681;23;20022;-68
2022/11/12 00:58:29;;;;;;;;;;;;;;;;;;6128293;23;20036;-68
2022/11/12 01:00:55;;;;;;;16.40;10.45;;;;;;;;;;6153068;23;19987;-68
2022/11/12 01:03:21;;;;;;;15.27;10.93;;;;;;;;;;6153665;23;20021;-68
2022/11/12 01:05:47;;;;;;;16.95;11.05;;;;;;;;;;6155197;23;20100;-68
2022/11/12 01:08:13;;;;;;;16.10;10.32;;;;;;;;;;6155183;23;20397;-68
2022/11/12 01:10:40;;;;;;;12.55;9.27;;;;;;;;;;6154979;23;20017;-68
2022/11/12 01:13:06;;;;;;;13.43;10.18;;;;;;;;;;6155533;23;20014;-68
2022/11/12 01:15:32;;;;;;;15.23;9.95;;;;;;;;;;6155073;23;20014;-68
2022/11/12 01:17:58;;;;;;;16.10;10.65;;;;;;;;;;6154874;23;20052;-68
2022/11/12 01:20:24;;;;;;;14.15;10.13;;;;;;;;;;6154644;23;20117;-68
2022/11/12 01:22:50;;;;;;;16.08;9.30;;;;;;;;;;6154878;23;20017;-68
2022/11/12 01:25:16;;;;;;;13.80;10.23;;;;;;;;;;6128562;23;20449;-68
2022/11/12 01:27:42;;;;;;;14.57;10.43;;;;;;;;;;6155102;23;20018;-68
2022/11/12 01:30:09;;;;;;;15.63;9.88;;;;;;;;;;6154868;23;20048;-68
2022/11/12 01:32:36;;;;;;;18.63;11.25;;;;;;;;;;6153909;23;20349;-68
2022/11/12 01:35:02;;;;;;;15.02;10.38;;;;;;;;;;6154562;23;20049;-68
2022/11/12 01:37:28;;;;;;;16.33;11.07;;;;;;;;;;6103856;23;20018;-67
2022/11/12 01:39:54;;;;;;;14.07;9.07;;;;;;;;;;6128746;23;20461;-68
2022/11/12 01:42:23;;;;;;;14.05;9.45;;;;;;;;;;6155058;23;20024;-68
2022/11/12 01:44:52;;;;;;;17.70;10.82;;;;;;;;;;6154514;23;20021;-68
2022/11/12 01:47:22;;;;;;;14.50;9.45;;;;;;;;;;6155239;23;20048;-68
2022/11/12 01:50:05;;;;;;;12.27;9.63;;;;;;;;;;6127925;23;20112;-68
2022/11/12 01:52:37;;;;;;;16.25;10.77;;;;;;;;;;6154703;23;20045;-68
2022/11/12 01:55:06;;;;;;;15.10;10.48;;;;;;;;;;6154930;23;20053;-68
2022/11/12 01:57:53;;;;;;;17.35;10.60;;;;;;;;;;6155214;23;20401;-69
2022/11/12 02:00:19;;;;;;;16.05;11.48;;;;;;;;;;6154471;23;20013;-68
2022/11/12 02:02:46;;;;;;;16.20;11.32;;;;;;;;;;6154774;23;20025;-69
2022/11/12 02:05:13;;;;;;;15.77;10.98;;;;;;;;;;6128380;23;20021;-68
2022/11/12 02:07:41;;;;;;;14.50;10.63;;;;;;;;;;6153893;23;20048;-67
2022/11/12 02:10:07;;;;;;;17.10;9.70;;;;;;;;;;6154551;23;20009;-68
2022/11/12 02:15:18;;;;;;;17.25;10.32;;;;;;;;;;6128409;23;20508;-68
2022/11/12 02:17:45;;;;;;;15.10;10.60;;;;;;;;;;6153961;23;20018;-68
2022/11/12 02:20:12;;;;;;;15.52;10.48;;;;;;;;;;6154467;23;20017;-68
2022/11/12 02:22:38;;;;;;;13.45;10.52;;;;;;;;;;6154195;23;20464;-68
2022/11/12 02:25:04;;;;;;;17.50;10.88;;;;;;;;;;6154221;23;20013;-68
2022/11/12 02:27:31;;;;;;;16.23;10.27;;;;;;;;;;6154897;23;20097;-67
2022/11/12 02:29:57;;;;;;;17.10;12.32;;;;;;;;;;6154630;23;20010;-68
2022/11/12 02:32:23;;;;;;;15.25;11.10;;;;;;;;;;6128315;23;20016;-68
2022/11/12 02:34:49;;;;;;;16.65;11.10;;;;;;;;;;6154299;23;20458;-68
2022/11/12 02:37:15;;;;;;;16.70;11.25;;;;;;;;;;6128416;23;20017;-68
2022/11/12 02:39:41;;;;;;;15.93;11.25;;;;;;;;;;6155014;23;20030;-68
2022/11/12 02:42:07;;;;;;;14.70;10.80;;;;;;;;;;6155350;23;20013;-68
2022/11/12 02:44:33;;;;;;;15.05;10.55;;;;;;;;;;6155013;23;20097;-68
2022/11/12 02:47:00;;;;;;;12.65;9.93;;;;;;;;;;6154283;23;20396;-68
2022/11/12 02:49:26;;;;;;;16.42;10.77;;;;;;;;;;6154182;23;20017;-68
2022/11/12 02:51:52;;;;;;;20.70;11.20;;;;;;;;;;6154570;23;20014;-68
2022/11/12 02:54:18;;;;;;;16.52;12.50;;;;;;;;;;6127772;23;20044;-68
2022/11/12 02:56:44;;;;;;;14.73;10.85;;;;;;;;;;6154234;23;20013;-68
2022/11/12 02:59:10;;;;;;;15.57;11.13;;;;;;;;;;6128468;23;20028;-68
2022/11/12 03:01:36;;;;;;;17.40;11.77;;;;;;;;;;6128490;23;20029;-68
2022/11/12 03:04:02;;;;;;;16.48;12.50;;;;;;;;;;6154002;23;20440;-68
2022/11/12 03:06:28;;;;;;;19.92;11.98;;;;;;;;;;6127280;23;20013;-68
2022/11/12 03:08:55;;;;;;;14.10;11.32;;;;;;;;;;6154678;23;20014;-68
2022/11/12 03:11:21;;;;;;;19.77;14.10;;;;;;;;;;6103887;23;20018;-68
2022/11/12 03:13:47;;;;;;;20.50;13.63;;;;;;;;;;6128267;23;20014;-68
2022/11/12 03:16:13;;;;;;;18.17;12.90;;;;;;;;;;6154372;23;20021;-68
2022/11/12 03:18:39;;;;;;;21.70;12.45;;;;;;;;;;6128435;23;20020;-68
2022/11/12 03:21:06;;;;;;;16.45;12.23;;;;;;;;;;6153979;23;20068;-68
2022/11/12 03:23:32;;;;;;;17.95;11.40;;;;;;;;;;6128281;23;20014;-68
2022/11/12 03:25:58;;;;;;;16.70;12.30;;;;;;;;;;6153946;23;20436;-68
2022/11/12 03:28:24;;;;;;;17.05;11.30;;;;;;;;;;6154020;23;20017;-68
2022/11/12 03:30:50;;;;;;;17.42;11.77;;;;;;;;;;6154314;23;20443;-69
2022/11/12 03:33:17;;;;;;;15.98;12.10;;;;;;;;;;6154610;23;20148;-68
2022/11/12 03:35:43;;;;;;;16.75;11.65;;;;;;;;;;6103561;23;20021;-68
2022/11/12 03:38:09;;;;;;;16.80;12.18;;;;;;;;;;6127680;23;20105;-68
2022/11/12 03:40:35;;;;;;;16.85;11.93;;;;;;;;;;6154271;23;20033;-68
2022/11/12 03:43:01;;;;;;;17.63;12.52;;;;;;;;;;6154111;23;20028;-68
2022/11/12 03:45:27;;;;;;;19.98;12.65;;;;;;;;;;6153631;23;20009;-68
2022/11/12 03:47:55;;;;;;;16.77;13.45;;;;;;;;;;6127865;23;20390;-68
2022/11/12 03:50:23;;;;;;;17.38;12.63;;;;;;;;;;6154301;23;20162;-68
2022/11/12 03:52:50;;;;;;;21.27;13.98;;;;;;;;;;6152964;23;20025;-68
2022/11/12 03:55:17;;;;;;;16.70;12.43;;;;;;;;;;6153510;23;20053;-68
2022/11/12 03:57:44;;;;;;;19.52;12.90;;;;;;;;;;6127808;23;20013;-69
2022/11/12 04:00:11;;;;;;;15.15;11.82;;;;;;;;;;6153955;23;20036;-68
2022/11/12 04:02:37;;;;;;;21.73;13.05;;;;;;;;;;6153580;23;20407;-68
2022/11/12 04:10:35;;;;;;;25.42;15.73;;;;;;;;;;6153778;23;20346;-67
2022/11/12 04:21:49;;;;;;;31.05;15.43;;;;;;;;;;6153470;23;20052;-68
2022/11/12 04:24:01;;;;;;;32.50;16.90;;;;;;;;;;6153548;23;20080;-68
2022/11/12 04:26:27;;;;;;;30.85;17.60;;;;;;;;;;6154023;23;20056;-68
2022/11/12 04:31:38;;;;;;;30.38;17.77;;;;;;;;;;6153465;23;20014;-68
2022/11/12 04:36:49;;;;;;;42.20;19.83;;;;;;;;;;6127259;23;20096;-68
2022/11/12 04:39:15;;;;;;;38.95;18.67;;;;;;;;;;6126667;23;20475;-68
2022/11/12 04:47:11;;;;;;;41.38;19.60;;;;;;;;;;6153262;23;20018;-68
2022/11/12 04:49:37;;;;;;;52.83;22.50;;;;;;;;;;6153417;23;20344;-68
2022/11/12 04:52:03;;;;;;;38.25;18.83;;;;;;;;;;6153317;23;20096;-68
2022/11/12 04:54:30;;;;;;;58.70;21.90;;;;;;;;;;6153622;23;20018;-68
2022/11/12 04:56:56;;;;;;;38.60;22.25;;;;;;;;;;6103185;23;20075;-68
2022/11/12 04:59:22;;;;;;;79.35;23.70;;;;;;;;;;6127171;23;20322;-68
2022/11/12 05:01:48;;;;;;;37.08;20.80;;;;;;;;;;6154033;23;20021;-69
2022/11/12 05:04:14;;;;;;;52.72;21.63;;;;;;;;;;6153265;23;20090;-68
2022/11/12 05:06:53;;;;;;;57.38;24.13;;;;;;;;;;6153283;23;20017;-68
2022/11/12 05:09:28;;;;;;;39.42;22.25;;;;;;;;;;6153221;23;20358;-67
2022/11/12 05:11:55;;;;;;;56.90;23.85;;;;;;;;;;6153826;23;20013;-68
2022/11/12 05:14:22;;;;;;;39.30;20.83;;;;;;;;;;6153179;23;20024;-69
2022/11/12 05:16:48;;;;;;;33.30;20.45;;;;;;;;;;6153203;23;20048;-68
2022/11/12 05:19:14;;;;;;;45.85;22.52;;;;;;;;;;6153261;23;20016;-68
2022/11/12 05:24:25;;;;;;;72.10;23.52;;;;;;;;;;6153382;23;20449;-68
2022/11/12 05:26:51;;;;;;;71.32;25.00;;;;;;;;;;6152754;23;20049;-68
2022/11/12 05:29:17;;;;;;;69.15;25.25;;;;;;;;;;6152880;23;20068;-68
2022/11/12 05:31:44;;;;;;;49.58;22.02;;;;;;;;;;6127508;23;20072;-68
2022/11/12 05:34:10;;;;;;;28.70;19.55;;;;;;;;;;6127150;23;20462;-68
2022/11/12 05:36:36;;;;;;;38.53;21.55;;;;;;;;;;6153199;23;20433;-68
2022/11/12 05:39:03;;;;;;;31.27;20.40;;;;;;;;;;6122572;23;20021;-68
2022/11/12 05:41:29;;;;;;;63.13;24.17;;;;;;;;;;6123847;23;20033;-68
2022/11/12 05:43:56;;;;;;;47.28;20.67;;;;;;;;;;6123527;23;20010;-68
2022/11/12 05:46:22;;;;;;;74.82;26.63;;;;;;;;;;6124173;23;20017;-69
2022/11/12 05:48:49;;;;;;;83.32;24.98;;;;;;;;;;6123012;23;20081;-68
2022/11/12 05:51:15;;;;;;;88.05;27.00;;;;;;;;;;6123591;23;20022;-68
2022/11/12 05:53:42;;;;;;;74.72;26.88;;;;;;;;;;6123849;23;20017;-68
2022/11/12 05:56:09;;;;;;;78.57;24.63;;;;;;;;;;6126016;23;20017;-69
2022/11/12 05:58:35;;;;;;;109.70;27.52;;;;;;;;;;6123887;23;20014;-68
2022/11/12 06:01:01;;;;;;;84.80;27.65;;;;;;;;;;6125018;23;20016;-68
2022/11/12 06:03:28;;;;;;;118.10;28.25;;;;;;;;;;6125294;23;20018;-69
2022/11/12 06:05:54;;;;;;;45.30;23.58;;;;;;;;;;6123670;23;20026;-68
2022/11/12 06:08:20;;;;;;;71.55;28.05;;;;;;;;;;6123774;23;20036;-68
2022/11/12 06:10:54;;;;;;;107.32;29.08;;;;;;;;;;6125451;23;20060;-68
2022/11/12 06:13:21;;;;;;;91.32;36.70;;;;;;;;;;6125031;23;20010;-68
2022/11/12 06:15:47;;;;;;;114.95;29.45;;;;;;;;;;6123237;23;20018;-68
2022/11/12 06:18:13;;;;;;;61.35;26.25;;;;;;;;;;6125329;23;20013;-68
2022/11/12 06:20:39;;;;;;;59.92;25.77;;;;;;;;;;6123420;23;20021;-68
2022/11/12 06:23:06;;;;;;;85.22;26.02;;;;;;;;;;6125397;23;20013;-68
2022/11/12 06:25:32;;;;;;;85.00;27.75;;;;;;;;;;6123097;23;20054;-68
2022/11/12 06:27:58;;;;;;;78.88;28.08;;;;;;;;;;6124877;23;20018;-68
2022/11/12 06:30:24;;;;;;;71.00;26.05;;;;;;;;;;6125608;23;20018;-68
2022/11/12 06:32:51;;;;;;;107.22;27.30;;;;;;;;;;6123641;23;20014;-68
2022/11/12 06:35:17;;;;;;;71.05;25.90;;;;;;;;;;6123377;23;20018;-68
2022/11/12 06:37:47;;;;;;;58.42;25.27;;;;;;;;;;6130863;23;20017;-70
2022/11/12 06:40:13;;;;;;;75.72;25.33;;;;;;;;;;6154369;23;20022;-68
2022/11/12 06:42:40;;;;;;;60.65;26.13;;;;;;;;;;6154082;23;20043;-68
2022/11/12 06:45:06;;;;;;;63.83;26.05;;;;;;;;;;6153902;23;20095;-67
2022/11/12 06:47:33;;;;;;;116.00;27.52;;;;;;;;;;6153573;23;20088;-68
2022/11/12 06:49:59;;;;;;;67.28;27.00;;;;;;;;;;6153855;23;20014;-68
2022/11/12 06:52:25;;;;;;;114.28;30.25;;;;;;;;;;6153642;23;20060;-67
2022/11/12 06:54:51;;;;;;;43.00;25.45;;;;;;;;;;6153929;23;20017;-68
2022/11/12 06:57:17;;;;;;;64.60;28.48;;;;;;;;;;6153962;23;20349;-68
2022/11/12 06:59:44;;;;;;;109.55;30.80;;;;;;;;;;6127086;23;20013;-68
2022/11/12 07:02:12;;;;;;;74.10;26.77;;;;;;;;;;6154418;23;20125;-69
2022/11/12 07:04:38;;;;;;;85.25;28.30;;;;;;;;;;6154055;23;20076;-68
2022/11/12 07:07:04;;;;;;;76.75;25.85;;;;;;;;;;6153828;23;20009;-68
2022/11/12 07:09:30;;;;;;;49.33;25.02;;;;;;;;;;6153900;23;20014;-68
2022/11/12 07:11:56;;;;;;;55.67;27.45;;;;;;;;;;6153514;23;20508;-68
2022/11/12 07:14:23;;;;;;;87.32;31.90;;;;;;;;;;6153676;23;20020;-68
2022/11/12 07:16:49;;;;;;;66.38;28.95;;;;;;;;;;6127551;23;20464;-68
2022/11/12 07:19:15;;;;;;;113.72;35.95;;;;;;;;;;6128012;23;20021;-68
2022/11/12 07:21:41;;;;;;;120.43;33.67;;;;;;;;;;6153770;23;20016;-68
2022/11/12 07:24:07;;;;;;;54.45;27.10;;;;;;;;;;6153449;23;20013;-68
2022/11/12 07:26:33;;;;;;;122.68;34.35;;;;;;;;;;6153988;23;20010;-68
2022/11/12 07:29:00;;;;;;;59.63;28.25;;;;;;;;;;6152373;23;20020;-67
2022/11/12 07:31:26;;;;;;;75.18;32.00;;;;;;;;;;6153036;23;20009;-67
2022/11/12 07:33:52;;;;;;;125.45;34.92;;;;;;;;;;6153207;23;20012;-67
2022/11/12 07:36:19;;;;;;;67.07;29.13;;;;;;;;;;6151261;23;20458;-67
2022/11/12 07:38:46;;;;;;;65.97;28.40;;;;;;;;;;6153631;23;20060;-67
2022/11/12 07:41:13;;;;;;;111.85;32.63;;;;;;;;;;6127974;23;20353;-68
2022/11/12 07:43:40;;;;;;;86.65;29.42;;;;;;;;;;6124573;23;20032;-67
2022/11/12 07:46:07;;;;;;;129.70;36.75;;;;;;;;;;6152010;23;20104;-67
2022/11/12 07:48:33;;;;;;;52.67;27.13;;;;;;;;;;6151769;23;20009;-67
2022/11/12 07:51:07;;;;;;;62.60;25.80;;;;;;;;;;6153460;23;20425;-67
2022/11/12 07:53:33;;;;;;;45.25;24.52;;;;;;;;;;6153605;23;20017;-67
2022/11/12 07:56:00;;;;;;;46.47;24.73;;;;;;;;;;6153162;23;20029;-67
2022/11/12 07:58:27;;;;;;;61.33;25.20;;;;;;;;;;6153360;23;20076;-67
2022/11/12 08:00:53;;;;;;;58.42;24.13;;;;;;;;;;6153682;23;20017;-67
2022/11/12 08:03:20;;;;;;;56.92;26.27;;;;;;;;;;6153117;23;20021;-67
2022/11/12 08:05:46;;;;;;;59.97;26.90;;;;;;;;;;6152608;23;20021;-68
2022/11/12 08:08:12;;;;;;;52.60;26.75;;;;;;;;;;6126347;23;20020;-68
2022/11/12 08:10:38;;;;;;;54.42;26.75;;;;;;;;;;6153432;23;20457;-68
2022/11/12 08:13:05;;;;;;;54.55;25.08;;;;;;;;;;6152956;23;20009;-68
2022/11/12 08:15:31;;;;;;;73.50;27.30;;;;;;;;;;6152524;23;20092;-67
2022/11/12 08:17:57;;;;;;;50.80;26.25;;;;;;;;;;6127477;23;20031;-68
2022/11/12 08:20:24;;;;;;;41.78;24.45;;;;;;;;;;6152666;23;20097;-68
2022/11/12 08:22:50;;;;;;;66.72;26.83;;;;;;;;;;6152672;23;20017;-67
2022/11/12 08:25:17;;;;;;;60.00;25.38;;;;;;;;;;6153145;23;20049;-68
2022/11/12 08:27:44;;;;;;;37.28;23.67;;;;;;;;;;6152729;23;20021;-68
2022/11/12 08:30:10;;;;;;;41.90;24.90;;;;;;;;;;6153158;23;20020;-68
2022/11/12 08:32:36;;;;;;;63.03;26.15;;;;;;;;;;6152989;23;20475;-67
2022/11/12 08:35:02;;;;;;;34.58;23.08;;;;;;;;;;6152803;23;20123;-68
2022/11/12 08:37:28;;;;;;;40.38;24.83;;;;;;;;;;6126809;23;20024;-68
2022/11/12 08:39:55;;;;;;;35.05;22.10;;;;;;;;;;6152601;23;20022;-68
2022/11/12 08:42:21;;;;;;;39.72;22.65;;;;;;;;;;6152727;23;20088;-68
2022/11/12 08:44:47;;;;;;;43.83;24.00;;;;;;;;;;6152403;23;20449;-68
2022/11/12 08:47:13;;;;;;;43.63;23.52;;;;;;;;;;6152952;23;20009;-68
2022/11/12 08:49:39;;;;;;;35.78;22.30;;;;;;;;;;6126534;23;20013;-69
2022/11/12 08:52:05;;;;;;;46.58;25.50;;;;;;;;;;6152715;23;20449;-68
2022/11/12 08:54:31;;;;;;;54.40;25.83;;;;;;;;;;6152946;23;20092;-68
2022/11/12 08:56:58;;;;;;;45.85;24.05;;;;;;;;;;6153676;23;20037;-68
2022/11/12 08:59:24;;;;;;;43.45;21.88;;;;;;;;;;6153105;23;20018;-68
2022/11/12 09:01:50;;;;;;;36.08;22.35;;;;;;;;;;6153152;23;20017;-68
2022/11/12 09:04:16;;;;;;;49.03;23.67;;;;;;;;;;6153210;23;20025;-68
2022/11/12 09:06:42;;;;;;;45.15;23.35;;;;;;;;;;6153223;23;20018;-68
2022/11/12 09:09:08;;;;;;;33.33;22.17;;;;;;;;;;6153303;23;20009;-68
2022/11/12 09:11:35;;;;;;;36.83;22.88;;;;;;;;;;6153229;23;20467;-68
2022/11/12 09:14:01;;;;;;;44.78;23.17;;;;;;;;;;6127326;23;20018;-68
2022/11/12 09:16:27;;;;;;;94.53;27.15;;;;;;;;;;6126849;23;20092;-68
2022/11/12 09:18:53;;;;;;;31.70;21.48;;;;;;;;;;6153031;23;20068;-68
2022/11/12 09:21:23;;;;;;;71.93;23.00;;;;;;;;;;6153711;23;20064;-68
2022/11/12 09:23:50;;;;;;;60.17;25.17;;;;;;;;;;6152201;23;20013;-68
2022/11/12 09:26:16;;;;;;;48.35;23.95;;;;;;;;;;6155311;23;20488;-68
2022/11/12 09:28:42;;;;;;;36.08;20.17;;;;;;;;;;6128870;23;20011;-68
2022/11/12 09:31:08;;;;;;;30.65;18.92;;;;;;;;;;6154592;23;20014;-68
2022/11/12 09:33:34;;;;;;;60.65;21.27;;;;;;;;;;6154758;23;20015;-68
2022/11/12 09:36:01;;;;;;;45.28;22.48;;;;;;;;;;6128651;23;20096;-68
2022/11/12 09:38:27;;;;;;;65.05;26.08;;;;;;;;;;6154079;23;20293;-68
2022/11/12 09:41:05;;;;;;;44.88;23.42;;;;;;;;;;6155246;23;20071;-68
2022/11/12 09:43:34;;;;;;;39.08;21.70;;;;;;;;;;6104462;23;20018;-68
2022/11/12 09:46:05;;;;;;;47.60;24.85;;;;;;;;;;6154576;23;20107;-68
2022/11/12 09:48:53;;;;;;;58.35;27.13;;;;;;;;;;6154389;23;20140;-68
2022/11/12 09:51:23;;;;;;;40.15;24.55;;;;;;;;;;6154317;23;20018;-68
2022/11/12 09:53:57;;;;;;;47.40;27.70;;;;;;;;;;6154693;23;20013;-69
2022/11/12 09:56:23;;;;;;;52.83;27.00;;;;;;;;;;6154931;23;20330;-68
2022/11/12 09:58:50;;;;;;;48.28;28.20;;;;;;;;;;6154356;23;20017;-68
2022/11/12 10:01:35;;;;;;;43.03;27.00;;;;;;;;;;6154551;23;20010;-68
2022/11/12 10:04:01;;;;;;;44.35;26.63;;;;;;;;;;6154623;23;20048;-68
2022/11/12 10:06:34;;;;;;;33.28;24.92;;;;;;;;;;6154820;23;20462;-68
2022/11/12 10:09:13;;;;;;;37.00;24.83;;;;;;;;;;6154122;23;20374;-68
2022/11/12 10:14:42;;;;;;;62.20;27.90;;;;;;;;;;6154251;23;20080;-68
2022/11/12 10:17:23;;;;;;;62.13;28.75;;;;;;;;;;6154722;23;20009;-68
2022/11/12 10:20:10;;;;;;;46.60;26.83;;;;;;;;;;6128114;23;20085;-68
2022/11/12 10:22:55;;;;;;;52.03;29.42;;;;;;;;;;6080784;23;20357;-68
2022/11/12 10:25:21;;;;;;;67.55;31.40;;;;;;;;;;6154457;23;20571;-68
2022/11/12 10:27:49;;;;;;;50.47;30.67;;;;;;;;;;6155003;23;20009;-69
2022/11/12 10:30:17;;;;;;;56.78;31.50;;;;;;;;;;6154911;23;20010;-69
2022/11/12 10:32:44;;;;;;;55.05;31.70;;;;;;;;;;6154542;23;20016;-68
2022/11/12 10:35:12;;;;;;;51.20;32.40;;;;;;;;;;6154978;23;20017;-68
2022/11/12 10:37:38;;;;;;;60.17;33.10;;;;;;;;;;6154116;23;20048;-68
2022/11/12 10:40:25;;;;;;;65.03;34.45;;;;;;;;;;6154145;23;20417;-68
2022/11/12 10:42:56;;;;;;;66.85;38.92;;;;;;;;;;6154273;23;20023;-68
2022/11/12 10:45:23;;;;;;;63.38;35.20;;;;;;;;;;6154780;23;20013;-68
2022/11/12 10:47:50;;;;;;;63.33;35.17;;;;;;;;;;6128305;23;20021;-68
2022/11/12 10:50:22;;;;;;;71.38;38.17;;;;;;;;;;6154213;23;20010;-68
2022/11/12 10:52:53;;;;;;;80.25;40.97;;;;;;;;;;6154313;23;20015;-68
2022/11/12 10:55:20;;;;;;;82.32;42.67;;;;;;;;;;6154496;23;20025;-68
2022/11/12 10:57:46;;;;;;;70.30;40.08;;;;;;;;;;6154534;23;20397;-68
2022/11/12 11:00:12;;;;;;;64.13;37.00;;;;;;;;;;6154179;23;20068;-68
2022/11/12 11:02:52;;;;;;;77.03;39.85;;;;;;;;;;6154799;23;20384;-68
2022/11/12 11:05:33;;;;;;;67.28;40.72;;;;;;;;;;6128343;23;20022;-68
2022/11/12 11:08:00;;;;;;;70.07;41.22;;;;;;;;;;6154489;23;20040;-68
2022/11/12 11:10:31;;;;;;;90.15;45.13;;;;;;;;;;6154301;23;20018;-68
2022/11/12 11:13:16;;;;;;;78.50;41.22;;;;;;;;;;6154272;23;20064;-68
2022/11/12 11:15:56;;;;;;;77.97;42.58;;;;;;;;;;6128222;23;20258;-68
2022/11/12 11:18:22;;;;;;;67.43;40.45;;;;;;;;;;6154162;23;20021;-68
2022/11/12 11:20:55;;;;;;;68.45;41.65;;;;;;;;;;6128123;23;20009;-68
2022/11/12 11:23:30;;;;;;;68.15;39.70;;;;;;;;;;6127875;23;20393;-68
2022/11/12 11:25:57;;;;;;;66.53;42.03;;;;;;;;;;6153686;23;20100;-68
2022/11/12 11:28:38;;;;;;;77.25;42.88;;;;;;;;;;6128314;23;20010;-68
2022/11/12 11:31:23;;;;;;;73.53;42.50;;;;;;;;;;6154563;23;20010;-68
2022/11/12 11:33:52;;;;;;;79.10;44.90;;;;;;;;;;6153833;23;20017;-68
2022/11/12 11:36:32;;;;;;;70.90;42.92;;;;;;;;;;6153735;23;20112;-68
2022/11/12 11:39:01;;;;;;;82.53;45.72;;;;;;;;;;6153830;23;20021;-68
2022/11/12 11:41:43;;;;;;;79.13;44.05;;;;;;;;;;6154264;23;20064;-68
2022/11/12 11:44:33;;;;;;;77.60;45.45;;;;;;;;;;6128259;23;20021;-68
2022/11/12 11:47:11;;;;;;;83.40;45.30;;;;;;;;;;6134624;23;20021;-68
2022/11/12 11:49:56;;;;;;;77.47;44.38;;;;;;;;;;6153222;23;20013;-68
2022/11/12 11:52:42;;;;;;;83.60;43.97;;;;;;;;;;6152983;23;20449;-69
2022/11/12 11:55:12;;;;;;;78.90;42.28;;;;;;;;;;6125949;23;20014;-68
2022/11/12 11:57:50;;;;;;;80.80;43.05;;;;;;;;;;6152630;23;20014;-68
2022/11/12 12:00:29;;;;;;;86.25;43.65;;;;;;;;;;6152864;23;20036;-68
2022/11/12 12:03:08;;;;;;;79.53;44.15;;;;;;;;;;6126655;23;20327;-68
2022/11/12 12:05:40;;;;;;;70.18;44.35;;;;;;;;;;6151278;23;20093;-68
2022/11/12 12:08:13;;;;;;;72.60;44.67;;;;;;;;;;6151561;23;20072;-68
2022/11/12 12:10:39;;;;;;;;;;;;;;;;;;6126216;23;20060;-68
2022/11/12 12:13:05;;;;;;;87.80;49.88;;;;;;;;;;6152626;23;19991;-68
2022/11/12 12:15:31;;;;;;;75.63;46.10;;;;;;;;;;6126159;23;20014;-69
2022/11/12 12:18:09;;;;;;;81.65;50.78;;;;;;;;;;6152423;23;20143;-68
2022/11/12 12:20:39;;;;;;;87.47;47.50;;;;;;;;;;6152489;23;20430;-68
2022/11/12 12:23:14;;;;;;;79.75;48.85;;;;;;;;;;6152809;23;20017;-68
2022/11/12 12:25:41;;;;;;;80.55;47.47;;;;;;;;;;6152173;23;20010;-68
2022/11/12 12:28:12;;;;;;;82.88;45.47;;;;;;;;;;6152433;23;20063;-68
2022/11/12 12:30:40;;;;;;;70.55;43.75;;;;;;;;;;6152112;23;20389;-68
2022/11/12 12:33:16;;;;;;;68.10;41.53;;;;;;;;;;6151091;23;20330;-68
2022/11/12 12:36:00;;;;;;;66.55;40.75;;;;;;;;;;6126028;23;20021;-68
2022/11/12 12:38:42;;;;;;;74.68;41.88;;;;;;;;;;6152043;23;20025;-68
2022/11/12 12:41:11;;;;;;;69.63;44.53;;;;;;;;;;6152481;23;20334;-67
2022/11/12 12:43:37;;;;;;;80.18;45.05;;;;;;;;;;6152221;23;20026;-68
2022/11/12 12:46:04;;;;;;;71.55;42.05;;;;;;;;;;6152367;23;20128;-68
2022/11/12 12:48:32;;;;;;;77.88;45.50;;;;;;;;;;6152246;23;20063;-68
2022/11/12 12:50:58;;;;;;;71.90;44.47;;;;;;;;;;6152824;23;20433;-68
2022/11/12 12:53:24;;;;;;;68.72;41.92;;;;;;;;;;6152308;23;20327;-68
2022/11/12 12:55:54;;;;;;;74.28;43.10;;;;;;;;;;6152148;23;20013;-68
2022/11/12 12:58:31;;;;;;;64.70;40.95;;;;;;;;;;6154037;23;20036;-68
2022/11/12 13:01:01;;;;;;;64.63;37.55;;;;;;;;;;6128735;23;20021;-68
2022/11/12 13:03:48;;;;;;;60.67;39.92;;;;;;;;;;6153835;23;20021;-68
2022/11/12 13:06:23;;;;;;;58.65;36.67;;;;;;;;;;6129792;23;20013;-68
2022/11/12 13:08:49;;;;;;;63.83;39.67;;;;;;;;;;6127822;23;20018;-67
2022/11/12 13:12:20;;;;;;;60.30;37.58;;;;;;;;;;6154409;23;20032;-69
2022/11/12 13:14:36;;;;;;;51.03;36.53;;;;;;;;;;6153491;23;20049;-68
2022/11/12 13:17:02;;;;;;;61.45;39.67;;;;;;;;;;6154698;23;20385;-68
2022/11/12 13:19:29;;;;;;;65.30;37.55;;;;;;;;;;6153743;23;20061;-68
2022/11/12 13:22:14;;;;;;;56.47;39.28;;;;;;;;;;6154391;23;20513;-68
2022/11/12 13:24:58;;;;;;;62.63;38.22;;;;;;;;;;6153857;23;20033;-68
2022/11/12 13:27:41;;;;;;;61.70;38.25;;;;;;;;;;6154056;23;20084;-67
2022/11/12 13:30:13;;;;;;;67.45;41.83;;;;;;;;;;6154319;23;20092;-67
2022/11/12 13:32:39;;;;;;;69.00;43.37;;;;;;;;;;6128215;23;20021;-68
2022/11/12 13:35:11;;;;;;;70.10;42.22;;;;;;;;;;6153847;23;20020;-68
2022/11/12 13:37:44;;;;;;;62.08;38.42;;;;;;;;;;6127375;23;20017;-68
2022/11/12 13:40:10;;;;;;;;;;;;;;;;;;6154951;23;20084;-67
2022/11/12 13:42:49;;;;;;;61.42;39.60;;;;;;;;;;6155018;23;19983;-68
2022/11/12 13:45:16;;;;;;;61.47;38.25;;;;;;;;;;6154115;23;20072;-68
2022/11/12 13:47:43;;;;;;;55.90;37.17;;;;;;;;;;6153684;23;20009;-68
2022/11/12 13:50:12;;;;;;;60.75;38.67;;;;;;;;;;6154170;23;20013;-68
2022/11/12 13:52:40;;;;;;;55.00;35.45;;;;;;;;;;6154189;23;20072;-68
2022/11/12 13:55:09;;;;;;;57.83;37.38;;;;;;;;;;6154058;23;20032;-68
2022/11/12 13:57:36;;;;;;;56.92;37.22;;;;;;;;;;6103535;23;20250;-68
2022/11/12 14:00:20;;;;;;;52.45;35.55;;;;;;;;;;6154588;23;20265;-69
2022/11/12 14:02:53;;;;;;;55.88;35.38;;;;;;;;;;6154057;23;20064;-68
2022/11/12 14:05:22;;;;;;;54.20;34.53;;;;;;;;;;6153378;23;20017;-68
2022/11/12 14:08:07;;;;;;;53.03;33.72;;;;;;;;;;6127256;23;20013;-68
2022/11/12 14:10:46;;;;;;;51.08;33.17;;;;;;;;;;6153107;23;20345;-68
2022/11/12 14:13:19;;;;;;;52.25;35.95;;;;;;;;;;6127556;23;20014;-68
2022/11/12 14:15:59;;;;;;;56.60;35.80;;;;;;;;;;6153598;23;20017;-68
2022/11/12 14:18:44;;;;;;;56.45;36.22;;;;;;;;;;6127806;23;20504;-68
2022/11/12 14:21:12;;;;;;;50.25;33.20;;;;;;;;;;6152994;23;20096;-68
2022/11/12 14:23:38;;;;;;;53.28;34.05;;;;;;;;;;6126719;23;20021;-68
2022/11/12 14:26:05;;;;;;;45.00;28.98;;;;;;;;;;6127591;23;20352;-68
2022/11/12 14:28:35;;;;;;;46.10;30.50;;;;;;;;;;6153036;23;20424;-67
2022/11/12 14:31:02;;;;;;;42.75;28.40;;;;;;;;;;6154790;23;20465;-68
2022/11/12 14:33:29;;;;;;;43.90;30.30;;;;;;;;;;6153710;23;20464;-68
2022/11/12 14:36:00;;;;;;;44.85;31.33;;;;;;;;;;6127686;23;20400;-68
2022/11/12 14:38:26;;;;;;;39.28;28.70;;;;;;;;;;6153957;23;20017;-68
2022/11/12 14:40:54;;;;;;;44.20;30.92;;;;;;;;;;6127173;23;20080;-68
2022/11/12 14:43:26;;;;;;;42.20;28.13;;;;;;;;;;6153158;23;20018;-68
2022/11/12 14:45:53;;;;;;;39.33;27.83;;;;;;;;;;6153042;23;20521;-67
2022/11/12 14:48:20;;;;;;;40.92;28.60;;;;;;;;;;6103061;23;20021;-68
2022/11/12 14:50:47;;;;;;;39.90;28.77;;;;;;;;;;6153487;23;20014;-67
2022/11/12 14:53:25;;;;;;;41.33;28.50;;;;;;;;;;6126883;23;20491;-68
2022/11/12 14:55:54;;;;;;;39.30;26.95;;;;;;;;;;6152995;23;20104;-69
2022/11/12 14:58:21;;;;;;;38.63;26.58;;;;;;;;;;6153499;23;20441;-68
2022/11/12 15:00:48;;;;;;;39.50;27.67;;;;;;;;;;6152975;23;20036;-68
2022/11/12 15:03:17;;;;;;;37.17;24.75;;;;;;;;;;6153016;23;20009;-67